createdAt,value
2023-04-16T06:23:58.580Z,8.2
2023-04-16T06:34:00.490Z,8.3
2023-04-16T06:44:03.028Z,8.4
2023-04-16T06:54:05.138Z,8.4
2023-04-16T07:54:19.130Z,8.5
2023-04-16T11:45:09.796Z,11.7
2023-04-16T12:05:14.415Z,11.7
2023-04-16T12:25:18.382Z,11.9
2023-04-16T12:45:23.659Z,12.4
2023-04-16T12:55:25.808Z,12.6
2023-04-16T13:05:28.124Z,12.4
2023-04-16T13:15:30.527Z,12.6
2023-04-16T13:25:32.980Z,12.7
2023-04-16T13:35:34.891Z,12.9
2023-04-16T13:45:37.493Z,12.9
2023-04-16T13:55:39.438Z,13
2023-04-16T14:05:41.879Z,13.2
2023-04-16T14:15:43.761Z,13.2
2023-04-16T14:25:46.345Z,12.9
2023-04-16T14:35:48.818Z,13
2023-04-16T15:05:55.743Z,13.1
2023-04-16T15:15:57.310Z,13.1
2023-04-16T15:25:59.312Z,13.3
2023-04-16T15:36:01.239Z,13.4
2023-04-16T15:46:03.286Z,13.2
2023-04-16T15:56:05.028Z,13.5
2023-04-16T16:06:07.424Z,13.6
2023-04-16T16:16:09.387Z,13.2
2023-04-16T16:26:11.451Z,13.1
2023-04-16T16:36:13.910Z,13.2
2023-04-16T16:46:16.409Z,13.1
2023-04-16T17:36:26.249Z,12.9
2023-04-16T17:46:27.979Z,12.7
2023-04-16T17:56:29.679Z,12.7
2023-04-16T18:06:31.704Z,12.6
2023-04-16T18:16:33.337Z,12.3
2023-04-16T18:26:36.026Z,12
2023-04-16T18:36:37.548Z,11.8
2023-04-16T19:16:45.205Z,11.3
2023-04-16T19:26:46.970Z,11.2
2023-04-16T20:06:55.611Z,10.8
2023-04-16T20:16:57.896Z,10.7
2023-04-16T20:47:03.897Z,10.5
2023-04-16T21:17:10.089Z,10.3
